Accueil
METAR-TAF:

METAR-TAF

Aéroports :

Samsun, Turquie

latitude: 41-15-15N, longitude: 036-34-03E, altitude: 5 m

Observation

Le bulletin a été fait il y a 34 minutes, à 22:50 UTC
Vent 9 kt de nord-ouest
Température 7°C
Humidité 76%
Pression 1019 hPa
Visibilité 10 km ou plus
Nuages épars à une hauteur de 3000 ft
Nuages fragmentés à une hauteur de 10000 ft

METAR: LTFH 192250Z 31009KT 9999 SCT030 BKN100 07/03 Q1019 NOSIG

Heure: 02:24 (23:24 UTC)

Prévision

Le bulletin a été fait il y a 3 heures et 44 minutes, à 19:40 UTC
Prévision valable du 19 à 21 UTC au 20 à 06 UTC
Vent 9 kt de ouest/nord-ouest
Visibilité 10 km ou plus
Nuages épars à une hauteur de 3000 ft
Nuages fragmentés à une hauteur de 10000 ft

TAF: LTFH 191940Z 1921/2006 29009KT 9999 SCT030 BKN100

Observations et prévisions météorologiques de plus de 4000 aéroports (messages METAR et TAF).

Les stations disponibles sont représentées par des disques jaunes et rouges sur la carte.

Passer la souris dessus pour voir le nom de la station.

Cliquer dessus pour voir les observations et prévisions météorologiques.

Pour changer de carte: cliquez sur les boutons verts avec une croix noire pour zoomer, sur le bouton vert avec un tiret pour effectuer un zoom arrière, ou sur les flèches vertes pour les cartes adjacentes.


METAR-TAF: